Time,TemperatureF,DewpointF,PressureIn,WindDirection,WindDirectionDegrees,WindSpeedMPH,WindSpeedGustMPH,Humidity,HourlyPrecipIn,Conditions,Clouds,dailyrainin,SolarRadiationWatts/m^2,SoftwareType,DateUTC
2013-02-25 00:01:00,23.0,16.0,-100.00,SW,214,11.0,14.0,74,-99.99,,,-99.99,-0.100000,,2013-02-25 07:01:00,
2013-02-25 00:11:00,23.0,16.0,-100.00,SW,214,11.0,14.0,74,-99.99,,,-99.99,0.000000,,2013-02-25 07:11:00,
2013-02-25 00:21:00,23.0,16.0,-100.00,SW,216,11.0,13.0,74,-99.99,,,-99.99,-0.100000,,2013-02-25 07:21:00,
2013-02-25 00:31:00,23.0,16.0,-100.00,SSW,209,10.0,13.0,76,-99.99,,,-99.99,-0.100000,,2013-02-25 07:31:00,
2013-02-25 00:41:00,23.0,16.0,-100.00,SSW,211,10.0,12.0,75,-99.99,,,-99.99,-0.100000,,2013-02-25 07:41:00,
2013-02-25 00:51:00,22.0,16.0,-100.00,SW,214,10.0,12.0,75,-99.99,,,-99.99,-0.100000,,2013-02-25 07:51:00,
2013-02-25 01:01:00,22.0,15.0,-100.00,SW,218,10.0,12.0,74,-99.99,,,-99.99,-0.100000,,2013-02-25 08:01:00,
2013-02-25 01:11:00,22.0,15.0,-100.00,SW,223,8.0,10.0,75,-99.99,,,-99.99,0.000000,,2013-02-25 08:11:00,
2013-02-25 01:21:00,21.0,15.0,-100.00,SW,220,8.0,11.0,76,-99.99,,,-99.99,0.000000,,2013-02-25 08:21:00,
2013-02-25 01:31:00,21.0,15.0,-100.00,SW,223,8.0,10.0,76,-99.99,,,-99.99,-0.100000,,2013-02-25 08:31:00,
2013-02-25 01:41:00,20.0,14.0,-100.00,SW,223,6.0,9.0,76,-99.99,,,-99.99,0.000000,,2013-02-25 08:41:00,
2013-02-25 01:51:00,20.0,14.0,-100.00,SW,223,6.0,8.0,77,-99.99,,,-99.99,-0.100000,,2013-02-25 08:51:00,
2013-02-25 02:01:00,20.0,14.0,-100.00,SW,224,7.0,9.0,76,-99.99,,,-99.99,0.000000,,2013-02-25 09:01:00,
2013-02-25 02:12:00,20.0,14.0,-100.00,SW,227,6.0,8.0,76,-99.99,,,-99.99,-0.100000,,2013-02-25 09:12:00,
2013-02-25 02:21:00,18.0,12.0,-100.00,WSW,243,2.0,4.0,75,-99.99,,,-99.99,0.000000,,2013-02-25 09:21:00,
2013-02-25 02:31:00,13.0,9.0,-100.00,NNE,29,4.0,5.0,84,-99.99,,,-99.99,-0.100000,,2013-02-25 09:31:00,
2013-02-25 02:41:00,14.0,10.0,-100.00,WSW,245,3.0,6.0,86,-99.99,,,-99.99,-0.100000,,2013-02-25 09:41:00,
2013-02-25 02:51:00,13.0,9.0,-100.00,WNW,282,3.0,4.0,85,-99.99,,,-99.99,-0.100000,,2013-02-25 09:51:00,
2013-02-25 03:01:00,11.0,8.0,-100.00,WNW,297,3.0,4.0,85,-99.99,,,-99.99,-0.100000,,2013-02-25 10:01:00,
2013-02-25 03:11:00,11.0,8.0,-100.00,NNE,18,4.0,5.0,87,-99.99,,,-99.99,-0.100000,,2013-02-25 10:11:00,
2013-02-25 03:21:00,11.0,8.0,-100.00,NNE,23,6.0,7.0,87,-99.99,,,-99.99,-0.100000,,2013-02-25 10:21:00,
2013-02-25 03:31:00,11.0,8.0,-100.00,NNE,23,6.0,7.0,87,-99.99,,,-99.99,-0.100000,,2013-02-25 10:31:00,
2013-02-25 03:41:00,11.0,8.0,-100.00,NNE,26,7.0,8.0,87,-99.99,,,-99.99,-0.100000,,2013-02-25 10:41:00,
2013-02-25 03:52:00,11.0,8.0,-100.00,NNE,21,7.0,8.0,88,-99.99,,,-99.99,-0.100000,,2013-02-25 10:52:00,
2013-02-25 04:01:00,11.0,8.0,-100.00,NNE,25,8.0,8.0,87,-99.99,,,-99.99,-0.100000,,2013-02-25 11:01:00,
2013-02-25 04:11:00,11.0,8.0,-100.00,NNE,19,8.0,9.0,86,-99.99,,,-99.99,-0.100000,,2013-02-25 11:11:00,
2013-02-25 04:21:00,11.0,8.0,-100.00,NNE,18,9.0,9.0,86,-99.99,,,-99.99,-0.100000,,2013-02-25 11:21:00,
2013-02-25 04:31:00,11.0,7.0,-100.00,NNE,24,10.0,11.0,86,-99.99,,,-99.99,-0.100000,,2013-02-25 11:31:00,
2013-02-25 04:41:00,10.0,6.0,-100.00,NNE,15,9.0,11.0,85,-99.99,,,-99.99,-0.100000,,2013-02-25 11:41:00,
2013-02-25 04:52:00,9.0,6.0,-100.00,NNE,14,9.0,10.0,85,-99.99,,,-99.99,-0.200000,,2013-02-25 11:52:00,
2013-02-25 05:01:00,9.0,5.0,-100.00,NNE,17,11.0,12.0,85,-99.99,,,-99.99,-0.100000,,2013-02-25 12:01:00,
2013-02-25 05:11:00,10.0,7.0,-100.00,NNE,16,12.0,14.0,86,-99.99,,,-99.99,-0.100000,,2013-02-25 12:11:00,
2013-02-25 05:21:00,10.0,6.0,-100.00,North,6,12.0,13.0,86,-99.99,,,-99.99,-0.100000,,2013-02-25 12:21:00,
2013-02-25 05:32:00,10.0,7.0,-100.00,NNE,26,9.0,11.0,87,-99.99,,,-99.99,-0.100000,,2013-02-25 12:32:00,
2013-02-25 05:41:00,9.0,6.0,-100.00,NNE,29,9.0,10.0,86,-99.99,,,-99.99,-0.100000,,2013-02-25 12:41:00,
2013-02-25 05:52:00,9.0,5.0,-100.00,NNE,25,8.0,10.0,86,-99.99,,,-99.99,-0.100000,,2013-02-25 12:52:00,
2013-02-25 06:01:00,8.0,5.0,-100.00,NE,34,9.0,11.0,86,-99.99,,,-99.99,-0.100000,,2013-02-25 13:01:00,
2013-02-25 06:11:00,8.0,5.0,-100.00,NNE,12,10.0,11.0,86,-99.99,,,-99.99,-0.100000,,2013-02-25 13:11:00,
2013-02-25 06:21:00,9.0,6.0,-100.00,North,3,10.0,11.0,86,-99.99,,,-99.99,-0.100000,,2013-02-25 13:21:00,
2013-02-25 06:31:00,9.0,6.0,-100.00,North,357,9.0,9.0,86,-99.99,,,-99.99,0.000000,,2013-02-25 13:31:00,
2013-02-25 06:41:00,9.0,5.0,-100.00,North,353,7.0,8.0,86,-99.99,,,-99.99,-0.100000,,2013-02-25 13:41:00,
2013-02-25 06:51:00,8.0,5.0,-100.00,NNE,14,8.0,9.0,86,-99.99,,,-99.99,-0.100000,,2013-02-25 13:51:00,
2013-02-25 07:02:00,8.0,5.0,-100.00,North,7,8.0,9.0,86,-99.99,,,-99.99,-0.100000,,2013-02-25 14:02:00,
2013-02-25 07:21:00,8.0,4.0,-100.00,NNE,23,8.0,9.0,86,-99.99,,,-99.99,2.100000,,2013-02-25 14:21:00,
2013-02-25 07:31:00,7.0,4.0,-100.00,NNE,25,7.0,8.0,86,-99.99,,,-99.99,3.700000,,2013-02-25 14:31:00,
2013-02-25 07:41:00,8.0,4.0,-100.00,NNE,18,7.0,8.0,87,-99.99,,,-99.99,14.500000,,2013-02-25 14:41:00,
2013-02-25 07:52:00,7.0,4.0,-100.00,North,4,7.0,8.0,86,-99.99,,,-99.99,26.900000,,2013-02-25 14:52:00,
2013-02-25 08:02:00,7.0,4.0,-100.00,North,356,8.0,9.0,86,-99.99,,,-99.99,32.599998,,2013-02-25 15:02:00,
2013-02-25 08:11:00,8.0,5.0,-100.00,NNW,346,8.0,10.0,87,-99.99,,,-99.99,50.400002,,2013-02-25 15:11:00,
2013-02-25 08:21:00,8.0,4.0,-100.00,NNW,342,8.0,8.0,86,-99.99,,,-99.99,110.400002,,2013-02-25 15:21:00,
2013-02-25 08:32:00,8.0,5.0,-100.00,North,356,8.0,9.0,86,-99.99,,,-99.99,169.100006,,2013-02-25 15:32:00,
2013-02-25 08:41:00,9.0,6.0,-100.00,North,349,9.0,10.0,86,-99.99,,,-99.99,173.600006,,2013-02-25 15:41:00,
2013-02-25 08:51:00,10.0,7.0,-100.00,North,360,8.0,9.0,85,-99.99,,,-99.99,220.899994,,2013-02-25 15:51:00,
2013-02-25 09:01:00,10.0,7.0,-100.00,North,1,7.0,9.0,85,-99.99,,,-99.99,234.100006,,2013-02-25 16:01:00,
2013-02-25 09:11:00,12.0,8.0,-100.00,NNE,16,7.0,8.0,86,-99.99,,,-99.99,254.800003,,2013-02-25 16:11:00,
2013-02-25 09:21:00,12.0,9.0,-100.00,NNE,20,7.0,8.0,84,-99.99,,,-99.99,244.800003,,2013-02-25 16:21:00,
2013-02-25 09:31:00,13.0,9.0,-100.00,North,8,7.0,8.0,84,-99.99,,,-99.99,289.000000,,2013-02-25 16:31:00,
2013-02-25 09:41:00,14.0,10.0,-100.00,NNE,13,6.0,7.0,84,-99.99,,,-99.99,359.399994,,2013-02-25 16:41:00,
2013-02-25 09:51:00,15.0,11.0,-100.00,North,7,6.0,7.0,83,-99.99,,,-99.99,376.600006,,2013-02-25 16:51:00,
2013-02-25 10:01:00,15.0,11.0,-100.00,North,7,6.0,7.0,84,-99.99,,,-99.99,410.299988,,2013-02-25 17:01:00,
2013-02-25 10:11:00,16.0,12.0,-100.00,North,8,6.0,7.0,83,-99.99,,,-99.99,446.399994,,2013-02-25 17:11:00,
2013-02-25 10:21:00,17.0,13.0,-100.00,North,8,5.0,6.0,82,-99.99,,,-99.99,455.700012,,2013-02-25 17:21:00,
2013-02-25 10:31:00,18.0,14.0,-100.00,North,356,6.0,7.0,82,-99.99,,,-99.99,506.899994,,2013-02-25 17:31:00,
2013-02-25 10:41:00,19.0,15.0,-100.00,North,1,6.0,7.0,81,-99.99,,,-99.99,539.200012,,2013-02-25 17:41:00,
2013-02-25 10:51:00,20.0,15.0,-100.00,North,4,6.0,7.0,79,-99.99,,,-99.99,509.299988,,2013-02-25 17:51:00,
2013-02-25 11:01:00,22.0,15.0,-100.00,NNE,26,5.0,6.0,76,-99.99,,,-99.99,491.899994,,2013-02-25 18:01:00,
2013-02-25 11:11:00,22.0,16.0,-100.00,NNE,29,5.0,6.0,76,-99.99,,,-99.99,536.900024,,2013-02-25 18:11:00,
2013-02-25 11:21:00,23.0,16.0,-100.00,NNE,20,3.0,4.0,74,-99.99,,,-99.99,568.000000,,2013-02-25 18:21:00,
2013-02-25 11:32:00,23.0,16.0,-100.00,NNW,341,4.0,5.0,74,-99.99,,,-99.99,587.000000,,2013-02-25 18:32:00,
2013-02-25 12:01:00,26.0,18.0,-100.00,WNW,303,4.0,6.0,70,-99.99,,,-99.99,642.900024,,2013-02-25 19:01:00,
2013-02-25 12:11:00,26.0,17.0,-100.00,WNW,300,4.0,6.0,67,-99.99,,,-99.99,526.599976,,2013-02-25 19:11:00,
2013-02-25 12:21:00,27.0,17.0,-100.00,WNW,303,5.0,6.0,66,-99.99,,,-99.99,390.000000,,2013-02-25 19:21:00,
2013-02-25 12:31:00,27.0,17.0,-100.00,NNE,13,2.0,3.0,65,-99.99,,,-99.99,412.299988,,2013-02-25 19:31:00,
2013-02-25 12:41:00,27.0,17.0,-100.00,NNE,18,1.0,2.0,64,-99.99,,,-99.99,349.399994,,2013-02-25 19:41:00,
2013-02-25 12:52:00,28.0,17.0,-100.00,NE,54,4.0,5.0,63,-99.99,,,-99.99,327.000000,,2013-02-25 19:52:00,
2013-02-25 13:01:00,28.0,18.0,-100.00,SE,136,5.0,7.0,65,-99.99,,,-99.99,328.299988,,2013-02-25 20:01:00,
2013-02-25 13:11:00,28.0,19.0,-100.00,East,98,6.0,8.0,66,-99.99,,,-99.99,313.299988,,2013-02-25 20:11:00,
2013-02-25 13:21:00,28.0,18.0,-100.00,East,90,6.0,8.0,65,-99.99,,,-99.99,314.200012,,2013-02-25 20:21:00,
2013-02-25 13:31:00,29.0,19.0,-100.00,ESE,102,7.0,9.0,67,-99.99,,,-99.99,350.700012,,2013-02-25 20:31:00,
2013-02-25 13:41:00,29.0,20.0,-100.00,SE,132,8.0,9.0,68,-99.99,,,-99.99,370.000000,,2013-02-25 20:41:00,
2013-02-25 13:52:00,29.0,20.0,-100.00,SE,138,7.0,8.0,67,-99.99,,,-99.99,400.100006,,2013-02-25 20:52:00,
2013-02-25 14:01:00,30.0,20.0,-100.00,SSE,150,7.0,9.0,66,-99.99,,,-99.99,367.700012,,2013-02-25 21:01:00,
2013-02-25 14:11:00,30.0,20.0,-100.00,SSE,152,7.0,9.0,65,-99.99,,,-99.99,350.500000,,2013-02-25 21:11:00,
2013-02-25 14:21:00,30.0,21.0,-100.00,SSE,152,10.0,12.0,68,-99.99,,,-99.99,373.200012,,2013-02-25 21:21:00,
2013-02-25 14:31:00,30.0,20.0,-100.00,South,184,10.0,13.0,64,-99.99,,,-99.99,355.399994,,2013-02-25 21:31:00,
2013-02-25 14:41:00,31.0,19.0,-100.00,SSW,195,8.0,11.0,62,-99.99,,,-99.99,424.000000,,2013-02-25 21:41:00,
2013-02-25 14:51:00,31.0,19.0,-100.00,SSW,198,7.0,9.0,60,-99.99,,,-99.99,383.100006,,2013-02-25 21:51:00,
2013-02-25 15:01:00,31.0,19.0,-100.00,South,191,10.0,14.0,60,-99.99,,,-99.99,361.200012,,2013-02-25 22:01:00,
2013-02-25 15:11:00,31.0,19.0,-100.00,South,188,7.0,9.0,60,-99.99,,,-99.99,368.200012,,2013-02-25 22:11:00,
2013-02-25 15:21:00,31.0,20.0,-100.00,South,189,10.0,13.0,61,-99.99,,,-99.99,317.100006,,2013-02-25 22:21:00,
2013-02-25 15:31:00,31.0,20.0,-100.00,South,188,14.0,18.0,64,-99.99,,,-99.99,243.600006,,2013-02-25 22:31:00,
2013-02-25 15:41:00,31.0,19.0,-100.00,SSW,199,18.0,22.0,62,-99.99,,,-99.99,268.299988,,2013-02-25 22:41:00,
2013-02-25 15:51:00,31.0,19.0,-100.00,SSW,199,18.0,21.0,61,-99.99,,,-99.99,242.199997,,2013-02-25 22:51:00,
2013-02-25 16:01:00,31.0,20.0,-100.00,SSW,198,15.0,19.0,62,-99.99,,,-99.99,171.199997,,2013-02-25 23:01:00,
2013-02-25 16:11:00,31.0,20.0,-100.00,SSW,194,12.0,15.0,62,-99.99,,,-99.99,165.899994,,2013-02-25 23:11:00,
2013-02-25 16:21:00,31.0,20.0,-100.00,SSW,200,12.0,18.0,63,-99.99,,,-99.99,187.600006,,2013-02-25 23:21:00,
2013-02-25 16:31:00,31.0,21.0,-100.00,SSW,212,13.0,20.0,67,-99.99,,,-99.99,207.100006,,2013-02-25 23:31:00,
2013-02-25 16:41:00,31.0,22.0,-100.00,SSW,204,13.0,20.0,67,-99.99,,,-99.99,194.899994,,2013-02-25 23:41:00,
2013-02-25 16:51:00,31.0,23.0,-100.00,SW,215,13.0,17.0,72,-99.99,,,-99.99,134.600006,,2013-02-25 23:51:00,
2013-02-25 17:01:00,30.0,24.0,-100.00,SW,236,11.0,17.0,79,-99.99,,,-99.99,170.500000,,2013-02-26 00:01:00,
2013-02-25 17:11:00,29.0,25.0,-100.00,SW,223,12.0,17.0,84,-99.99,,,-99.99,97.699997,,2013-02-26 00:11:00,
2013-02-25 17:21:00,29.0,26.0,-100.00,SW,218,12.0,16.0,87,-99.99,,,-99.99,61.599998,,2013-02-26 00:21:00,
2013-02-25 17:32:00,29.0,26.0,-100.00,SW,216,11.0,14.0,88,-99.99,,,-99.99,63.400002,,2013-02-26 00:32:00,
2013-02-25 17:41:00,29.0,26.0,-100.00,SW,218,10.0,13.0,88,-99.99,,,-99.99,63.299999,,2013-02-26 00:41:00,
2013-02-25 17:51:00,29.0,26.0,-100.00,SW,236,10.0,13.0,87,-99.99,,,-99.99,43.400002,,2013-02-26 00:51:00,
2013-02-25 18:01:00,29.0,25.0,-100.00,WSW,243,12.0,18.0,85,-99.99,,,-99.99,8.400000,,2013-02-26 01:01:00,
2013-02-25 18:11:00,29.0,25.0,-100.00,WSW,239,16.0,22.0,85,-99.99,,,-99.99,4.800000,,2013-02-26 01:11:00,
2013-02-25 18:21:00,29.0,25.0,-100.00,WSW,242,14.0,20.0,84,-99.99,,,-99.99,1.700000,,2013-02-26 01:21:00,
2013-02-25 18:31:00,29.0,25.0,-100.00,WSW,239,12.0,16.0,84,-99.99,,,-99.99,1.100000,,2013-02-26 01:31:00,
2013-02-25 18:41:00,29.0,25.0,-100.00,WSW,243,16.0,23.0,83,-99.99,,,-99.99,0.100000,,2013-02-26 01:41:00,
2013-02-25 18:51:00,29.0,24.0,-100.00,WSW,247,17.0,23.0,82,-99.99,,,-99.99,0.000000,,2013-02-26 01:51:00,
2013-02-25 19:01:00,29.0,24.0,-100.00,WSW,249,14.0,19.0,82,-99.99,,,-99.99,-0.100000,,2013-02-26 02:01:00,
2013-02-25 19:11:00,29.0,24.0,-100.00,WSW,242,11.0,17.0,82,-99.99,,,-99.99,-0.100000,,2013-02-26 02:11:00,
2013-02-25 19:21:00,28.0,24.0,-100.00,WSW,250,13.0,17.0,83,-99.99,,,-99.99,-0.100000,,2013-02-26 02:21:00,
2013-02-25 19:31:00,28.0,23.0,-100.00,WSW,249,13.0,16.0,82,-99.99,,,-99.99,-0.100000,,2013-02-26 02:31:00,
2013-02-25 19:41:00,28.0,23.0,-100.00,WSW,248,12.0,15.0,80,-99.99,,,-99.99,0.000000,,2013-02-26 02:41:00,
2013-02-25 19:51:00,28.0,23.0,-100.00,WSW,247,12.0,16.0,80,-99.99,,,-99.99,0.000000,,2013-02-26 02:51:00,
2013-02-25 20:01:00,27.0,23.0,-100.00,WSW,245,12.0,17.0,82,-99.99,,,-99.99,-0.100000,,2013-02-26 03:01:00,
2013-02-25 20:11:00,27.0,22.0,-100.00,WSW,250,13.0,20.0,81,-99.99,,,-99.99,-0.100000,,2013-02-26 03:11:00,
2013-02-25 20:21:00,27.0,22.0,-100.00,WSW,248,12.0,15.0,82,-99.99,,,-99.99,-0.100000,,2013-02-26 03:21:00,
2013-02-25 20:31:00,27.0,22.0,-100.00,WSW,258,11.0,14.0,81,-99.99,,,-99.99,-0.100000,,2013-02-26 03:31:00,
2013-02-25 20:41:00,27.0,22.0,-100.00,WSW,257,11.0,14.0,81,-99.99,,,-99.99,0.000000,,2013-02-26 03:41:00,
2013-02-25 20:51:00,27.0,22.0,-100.00,WSW,241,8.0,11.0,80,-99.99,,,-99.99,-0.100000,,2013-02-26 03:51:00,
2013-02-25 21:01:00,27.0,22.0,-100.00,WSW,239,9.0,13.0,81,-99.99,,,-99.99,-0.100000,,2013-02-26 04:01:00,
2013-02-25 21:11:00,27.0,23.0,-100.00,WSW,243,11.0,15.0,82,-99.99,,,-99.99,-0.100000,,2013-02-26 04:11:00,
2013-02-25 21:21:00,27.0,23.0,-100.00,WSW,239,10.0,15.0,83,-99.99,,,-99.99,-0.100000,,2013-02-26 04:21:00,
2013-02-25 21:31:00,27.0,22.0,-100.00,WSW,248,15.0,22.0,82,-99.99,,,-99.99,-0.100000,,2013-02-26 04:31:00,
2013-02-25 21:42:00,27.0,22.0,-100.00,WSW,256,15.0,19.0,81,-99.99,,,-99.99,-0.100000,,2013-02-26 04:42:00,
2013-02-25 21:51:00,27.0,22.0,-100.00,WSW,256,14.0,17.0,81,-99.99,,,-99.99,-0.100000,,2013-02-26 04:51:00,
2013-02-25 22:01:00,27.0,22.0,-100.00,WSW,257,13.0,18.0,81,-99.99,,,-99.99,-0.100000,,2013-02-26 05:01:00,
2013-02-25 22:11:00,27.0,22.0,-100.00,West,263,14.0,17.0,82,-99.99,,,-99.99,-0.100000,,2013-02-26 05:11:00,
2013-02-25 22:21:00,27.0,22.0,-100.00,WSW,256,12.0,16.0,83,-99.99,,,-99.99,-0.100000,,2013-02-26 05:21:00,
2013-02-25 22:31:00,27.0,22.0,-100.00,WSW,256,10.0,15.0,82,-99.99,,,-99.99,-0.100000,,2013-02-26 05:31:00,
2013-02-25 22:42:00,27.0,22.0,-100.00,WSW,250,9.0,11.0,82,-99.99,,,-99.99,-0.100000,,2013-02-26 05:42:00,
2013-02-25 22:52:00,27.0,23.0,-100.00,WSW,251,9.0,13.0,83,-99.99,,,-99.99,-0.100000,,2013-02-26 05:52:00,
2013-02-25 23:01:00,27.0,23.0,-100.00,WSW,249,8.0,11.0,84,-99.99,,,-99.99,-0.100000,,2013-02-26 06:01:00,
2013-02-25 23:11:00,27.0,23.0,-100.00,WSW,242,8.0,10.0,85,-99.99,,,-99.99,-0.100000,,2013-02-26 06:11:00,
2013-02-25 23:21:00,27.0,23.0,-100.00,WSW,244,8.0,10.0,86,-99.99,,,-99.99,0.000000,,2013-02-26 06:21:00,
2013-02-25 23:31:00,27.0,23.0,-100.00,WSW,245,9.0,11.0,86,-99.99,,,-99.99,-0.100000,,2013-02-26 06:31:00,
2013-02-25 23:41:00,27.0,23.0,-100.00,WSW,242,9.0,12.0,85,-99.99,,,-99.99,-0.100000,,2013-02-26 06:41:00,
2013-02-25 23:51:00,26.0,22.0,-100.00,WSW,255,8.0,10.0,84,-99.99,,,-99.99,-0.100000,,2013-02-26 06:51:00,